Aeroporto :
LOGIN :

Iscrizione | Disclaimer

   EN    FR    IT 

 










Sommario :    VFR   VFR Marginale   IFR   IFR Intensivo   IFR Molto Intensivo
Visibilità : 
Base nubi : 
>= 8 km
>= 3000ft
5 / 8 km
1000 / 3000 ft
1500m / 5 km
500 / 1000 ft
800 / 1500m
200 / 500 ft
< 800m
< 200 ft
Simboli :   Temporali  Nebbia  Neve Forte  Precipitazioni Forti  Vento > 20 kt
SIGMETs :   Varie  Temporali  Ghiacco  Turbolenza  Onda orograficha  Ceneri Vulcaniche






- Altitudine del aeroporto : 80 ft
- Codice IATA : LPL


EGGP - Liverpool John Lennon

ULTIMO METAR :
  • 191420Z 29010KT 9999 FEW008 SCT020 16/12 Q1016

METARs OBSOLETI :
  • 191350Z 28010KT 9999 VCSH FEW006 SCT018 BKN041 16/13 Q1016
  • 191320Z 28009KT 260V330 9999 VCSH FEW006 SCT013 BKN026 16/14 Q1015
  • 191250Z 28007KT 260V320 6000 -RADZ FEW007 SCT017 BKN026 15/14 Q1015
  • 191220Z 28009KT 5000 -RADZ FEW009 SCT018 OVC028 15/13 Q1015
  • 191150Z 27012KT 5000 -RA OVC020 16/14 Q1015

TAF TAF EGGP
Valido dal 19 a 12 ore il 20 a 12 ore UTC


191057Z 1912/2012 14005KT 9999 FEW025
BECMG 1912/1915 30010KT
TEMPO 1912/1916 8000 -SHRA
PROB30
TEMPO 1912/1916 4000 SHRA BKN014
PROB40 2004/2008 8000
ATIS : +44 151 907 2000 (option 5 or ext 5150)
Met : +44 871 750 5150



MetMap, La meteo Aeronautica in un colpo d'occhio ! - Copyright ORBIFLY Dicembre 2007 - Disclaimer

ORBIFLY MET'MAP TEAM :

Programmazione e sviluppo : Alexandra Zaïnal
Concezione : Baudouin d'Aumeries
Aiuto per la programmazione : Marc-Olivier Méhu
Supporto tecnico e logistico : Manuel Goepfert
Aiuto per la traduzione : Arnaldo La Scala

Contatto : metmap@orbifly.com




FONTI E CREDITI :

   NOAA